Magne Viking — OURK2 — position and weather

sailwx.info

Track history (hours):
 
Tides and Currents Weather Stations Pressure Air Temp Water Temp Dewpoint Dewpoint Depression Visibility Wind Speed Wind Dir Waves Ship Positions

Magne Viking

Last reported at 2015-Jul-23 04:33 UTC. Time now 2015-Aug-02 10:25 UTC.
Position N 56°29' W 002°26'.
Warning: this ship's position is 10 days out of date.

Length 85 m; draft 6.4 m.

Type: Tug. MMSI: 219375000.

Date/timePositionNaut miles runAvg speedWind from/ knotsBaromVisibWave heightAir tempDewpointWater temp
2015-Jul-23 04:33N 56°29' W 002°26'1010.5
2015-Jul-23 03:33N 56°19' W 002°30'1010.3
2015-Jul-23 02:33N 56°11' W 002°42'9 9.2
2015-Jul-23 01:34N 56°09' W 002°58'0 0.3
2015-Jul-23 00:34N 56°09' W 002°58'0 0.3
2015-Jul-22 23:34N 56°09' W 002°58'0 0.3
2015-Jul-22 22:34N 56°09' W 002°59'0 0.3
2015-Jul-22 21:34N 56°09' W 002°58'0 0.2
2015-Jul-22 20:34N 56°08' W 002°58'0 0.0
2015-Jul-22 19:34N 56°08' W 002°58'0 0.0
2015-Jul-22 18:33N 56°08' W 002°58'0 0.0
2015-Jul-22 17:33N 56°08' W 002°58'0 0.0
2015-Jul-22 16:33N 56°08' W 002°58'0 0.0
2015-Jul-22 15:33N 56°08' W 002°58'0 0.0
2015-Jul-22 14:33N 56°08' W 002°58'0 0.4
2015-Jul-22 13:33N 56°09' W 002°58'1 0.9
2015-Jul-22 12:33N 56°09' W 002°56'2 2.2
2015-Jul-22 11:34N 56°09' W 002°52'3 2.6
2015-Jul-22 10:34N 56°09' W 002°48'3 3.0
2015-Jul-22 09:34N 56°10' W 002°43'3 3.1
2015-Jul-22 08:34N 56°12' W 002°38'4 3.9
2015-Jul-22 07:34N 56°14' W 002°32'5 4.9
2015-Jul-22 06:34N 56°17' W 002°25'5 5.4
2015-Jul-22 05:34N 56°21' W 002°18'6 5.8
2015-Jul-22 04:33N 56°25' W 002°11'6 6.0
2015-Jul-22 03:33N 56°29' W 002°03'6 5.6
2015-Jul-22 02:33N 56°33' W 001°56'  
Track history (hours):
 
Tides and Currents Weather Stations Pressure Air Temp Water Temp Dewpoint Dewpoint Depression Visibility Wind Speed Wind Dir Waves Ship Positions

Magne Viking

Last reported at 2015-Jul-23 04:33 UTC. Time now 2015-Aug-02 10:25 UTC.
Position N 56°29' W 002°26'.
Warning: this ship's position is 10 days out of date.

Length 85 m; draft 6.4 m.

Type: Tug. MMSI: 219375000.

Date/timePositionNaut miles runAvg speedWind from/ knotsBaromVisibWave heightAir tempDewpointWater temp
2015-Jul-23 04:33N 56°29' W 002°26'1010.5
2015-Jul-23 03:33N 56°19' W 002°30'1010.3
2015-Jul-23 02:33N 56°11' W 002°42'9 9.2
2015-Jul-23 01:34N 56°09' W 002°58'0 0.3
2015-Jul-23 00:34N 56°09' W 002°58'0 0.3
2015-Jul-22 23:34N 56°09' W 002°58'0 0.3
2015-Jul-22 22:34N 56°09' W 002°59'0 0.3
2015-Jul-22 21:34N 56°09' W 002°58'0 0.2
2015-Jul-22 20:34N 56°08' W 002°58'0 0.0
2015-Jul-22 19:34N 56°08' W 002°58'0 0.0
2015-Jul-22 18:33N 56°08' W 002°58'0 0.0
2015-Jul-22 17:33N 56°08' W 002°58'0 0.0
2015-Jul-22 16:33N 56°08' W 002°58'0 0.0
2015-Jul-22 15:33N 56°08' W 002°58'0 0.0
2015-Jul-22 14:33N 56°08' W 002°58'0 0.4
2015-Jul-22 13:33N 56°09' W 002°58'1 0.9
2015-Jul-22 12:33N 56°09' W 002°56'2 2.2
2015-Jul-22 11:34N 56°09' W 002°52'3 2.6
2015-Jul-22 10:34N 56°09' W 002°48'3 3.0
2015-Jul-22 09:34N 56°10' W 002°43'3 3.1
2015-Jul-22 08:34N 56°12' W 002°38'4 3.9
2015-Jul-22 07:34N 56°14' W 002°32'5 4.9
2015-Jul-22 06:34N 56°17' W 002°25'5 5.4
2015-Jul-22 05:34N 56°21' W 002°18'6 5.8
2015-Jul-22 04:33N 56°25' W 002°11'6 6.0
2015-Jul-22 03:33N 56°29' W 002°03'6 5.6
2015-Jul-22 02:33N 56°33' W 001°56'  

Dump ship's entire track history